sensor_id;sensor_type;location;lat;lon;timestamp;P1;durP1;ratioP1;P2;durP2;ratioP2
58518;SDS011;44310;48.106;12.008;2022-12-24T00:01:01;2.17;;;1.00;;
58518;SDS011;44310;48.106;12.008;2022-12-24T00:03:29;6.00;;;1.50;;
58518;SDS011;44310;48.106;12.008;2022-12-24T00:05:56;6.30;;;1.60;;
58518;SDS011;44310;48.106;12.008;2022-12-24T00:08:24;5.83;;;1.43;;
58518;SDS011;44310;48.106;12.008;2022-12-24T00:10:51;7.03;;;1.50;;
58518;SDS011;44310;48.106;12.008;2022-12-24T00:13:19;6.60;;;1.67;;
58518;SDS011;44310;48.106;12.008;2022-12-24T00:15:46;5.47;;;1.70;;
58518;SDS011;44310;48.106;12.008;2022-12-24T00:18:14;7.00;;;1.60;;
58518;SDS011;44310;48.106;12.008;2022-12-24T00:20:45;8.90;;;1.95;;
58518;SDS011;44310;48.106;12.008;2022-12-24T00:23:14;7.30;;;1.77;;
58518;SDS011;44310;48.106;12.008;2022-12-24T00:25:41;11.20;;;1.85;;
58518;SDS011;44310;48.106;12.008;2022-12-24T00:28:10;6.45;;;1.60;;
58518;SDS011;44310;48.106;12.008;2022-12-24T00:30:38;4.22;;;1.30;;
58518;SDS011;44310;48.106;12.008;2022-12-24T00:33:07;2.17;;;0.82;;
58518;SDS011;44310;48.106;12.008;2022-12-24T00:35:35;2.00;;;0.80;;
58518;SDS011;44310;48.106;12.008;2022-12-24T00:38:03;3.45;;;0.93;;
58518;SDS011;44310;48.106;12.008;2022-12-24T00:40:30;6.65;;;1.83;;
58518;SDS011;44310;48.106;12.008;2022-12-24T00:42:57;18.90;;;3.38;;
58518;SDS011;44310;48.106;12.008;2022-12-24T00:45:25;11.10;;;2.42;;
58518;SDS011;44310;48.106;12.008;2022-12-24T00:47:54;13.55;;;3.20;;
58518;SDS011;44310;48.106;12.008;2022-12-24T00:50:21;15.00;;;2.90;;
58518;SDS011;44310;48.106;12.008;2022-12-24T00:52:49;15.95;;;3.33;;
58518;SDS011;44310;48.106;12.008;2022-12-24T00:55:16;18.10;;;3.53;;
58518;SDS011;44310;48.106;12.008;2022-12-24T00:57:43;23.53;;;4.40;;
58518;SDS011;44310;48.106;12.008;2022-12-24T01:00:10;18.90;;;3.67;;
58518;SDS011;44310;48.106;12.008;2022-12-24T01:02:37;25.60;;;3.88;;
58518;SDS011;44310;48.106;12.008;2022-12-24T01:05:05;14.65;;;3.25;;
58518;SDS011;44310;48.106;12.008;2022-12-24T01:07:42;11.05;;;2.72;;
58518;SDS011;44310;48.106;12.008;2022-12-24T01:10:10;12.30;;;2.55;;
58518;SDS011;44310;48.106;12.008;2022-12-24T01:12:42;10.83;;;2.70;;
58518;SDS011;44310;48.106;12.008;2022-12-24T01:15:10;11.93;;;2.58;;
58518;SDS011;44310;48.106;12.008;2022-12-24T01:17:39;11.65;;;2.60;;
58518;SDS011;44310;48.106;12.008;2022-12-24T01:20:08;11.43;;;2.63;;
58518;SDS011;44310;48.106;12.008;2022-12-24T01:22:39;4.70;;;1.63;;
58518;SDS011;44310;48.106;12.008;2022-12-24T01:25:07;8.27;;;2.10;;
58518;SDS011;44310;48.106;12.008;2022-12-24T01:27:34;7.22;;;1.67;;
58518;SDS011;44310;48.106;12.008;2022-12-24T01:30:01;6.75;;;1.77;;
58518;SDS011;44310;48.106;12.008;2022-12-24T01:32:29;8.50;;;1.95;;
58518;SDS011;44310;48.106;12.008;2022-12-24T01:34:57;10.45;;;2.03;;
58518;SDS011;44310;48.106;12.008;2022-12-24T01:37:25;10.93;;;2.28;;
58518;SDS011;44310;48.106;12.008;2022-12-24T01:39:52;8.75;;;2.15;;
58518;SDS011;44310;48.106;12.008;2022-12-24T01:42:40;7.80;;;2.30;;
58518;SDS011;44310;48.106;12.008;2022-12-24T01:45:34;6.85;;;2.00;;
58518;SDS011;44310;48.106;12.008;2022-12-24T01:48:39;6.93;;;1.77;;
58518;SDS011;44310;48.106;12.008;2022-12-24T01:51:26;8.33;;;1.80;;
58518;SDS011;44310;48.106;12.008;2022-12-24T01:53:57;5.57;;;1.60;;
58518;SDS011;44310;48.106;12.008;2022-12-24T01:56:29;5.78;;;1.63;;
58518;SDS011;44310;48.106;12.008;2022-12-24T01:59:02;4.50;;;1.50;;
58518;SDS011;44310;48.106;12.008;2022-12-24T02:01:32;5.03;;;1.60;;
58518;SDS011;44310;48.106;12.008;2022-12-24T02:04:01;4.32;;;1.20;;
58518;SDS011;44310;48.106;12.008;2022-12-24T02:06:36;6.18;;;1.50;;
58518;SDS011;44310;48.106;12.008;2022-12-24T02:09:03;5.53;;;1.50;;
58518;SDS011;44310;48.106;12.008;2022-12-24T02:11:32;3.47;;;1.25;;
58518;SDS011;44310;48.106;12.008;2022-12-24T02:14:02;8.00;;;1.50;;
58518;SDS011;44310;48.106;12.008;2022-12-24T02:16:33;6.53;;;1.27;;
58518;SDS011;44310;48.106;12.008;2022-12-24T02:19:38;4.50;;;1.30;;
58518;SDS011;44310;48.106;12.008;2022-12-24T02:22:16;6.82;;;1.70;;
58518;SDS011;44310;48.106;12.008;2022-12-24T02:25:01;5.35;;;1.20;;
58518;SDS011;44310;48.106;12.008;2022-12-24T02:30:14;3.17;;;1.25;;
58518;SDS011;44310;48.106;12.008;2022-12-24T02:35:39;2.45;;;1.00;;
58518;SDS011;44310;48.106;12.008;2022-12-24T02:38:21;4.30;;;1.25;;
58518;SDS011;44310;48.106;12.008;2022-12-24T02:41:19;6.00;;;1.40;;
58518;SDS011;44310;48.106;12.008;2022-12-24T02:43:53;8.70;;;2.00;;
58518;SDS011;44310;48.106;12.008;2022-12-24T02:46:24;9.00;;;1.80;;
58518;SDS011;44310;48.106;12.008;2022-12-24T02:48:53;7.78;;;1.75;;
58518;SDS011;44310;48.106;12.008;2022-12-24T02:51:22;7.70;;;1.70;;
58518;SDS011;44310;48.106;12.008;2022-12-24T02:53:50;10.73;;;2.60;;
58518;SDS011;44310;48.106;12.008;2022-12-24T02:59:07;7.50;;;1.67;;
58518;SDS011;44310;48.106;12.008;2022-12-24T03:01:48;7.45;;;1.83;;
58518;SDS011;44310;48.106;12.008;2022-12-24T03:04:31;8.07;;;1.48;;
58518;SDS011;44310;48.106;12.008;2022-12-24T03:07:20;4.30;;;1.40;;
58518;SDS011;44310;48.106;12.008;2022-12-24T03:13:06;4.60;;;1.20;;
58518;SDS011;44310;48.106;12.008;2022-12-24T03:15:39;3.90;;;1.40;;
58518;SDS011;44310;48.106;12.008;2022-12-24T03:18:08;4.68;;;1.10;;
58518;SDS011;44310;48.106;12.008;2022-12-24T03:20:42;3.45;;;1.25;;
58518;SDS011;44310;48.106;12.008;2022-12-24T03:23:13;4.70;;;0.97;;
58518;SDS011;44310;48.106;12.008;2022-12-24T03:25:41;5.07;;;1.27;;
58518;SDS011;44310;48.106;12.008;2022-12-24T03:28:10;2.20;;;0.90;;
58518;SDS011;44310;48.106;12.008;2022-12-24T03:30:43;3.25;;;1.23;;
58518;SDS011;44310;48.106;12.008;2022-12-24T03:33:12;2.83;;;1.20;;
58518;SDS011;44310;48.106;12.008;2022-12-24T03:35:39;2.80;;;1.30;;
58518;SDS011;44310;48.106;12.008;2022-12-24T03:38:07;4.18;;;1.10;;
58518;SDS011;44310;48.106;12.008;2022-12-24T03:40:34;4.50;;;1.13;;
58518;SDS011;44310;48.106;12.008;2022-12-24T03:43:01;2.70;;;0.87;;
58518;SDS011;44310;48.106;12.008;2022-12-24T03:45:28;2.70;;;0.90;;
58518;SDS011;44310;48.106;12.008;2022-12-24T03:47:56;2.88;;;1.00;;
58518;SDS011;44310;48.106;12.008;2022-12-24T03:50:23;3.28;;;1.00;;
58518;SDS011;44310;48.106;12.008;2022-12-24T03:52:50;4.22;;;0.90;;
58518;SDS011;44310;48.106;12.008;2022-12-24T03:55:17;2.88;;;1.38;;
58518;SDS011;44310;48.106;12.008;2022-12-24T03:57:44;1.35;;;0.82;;
58518;SDS011;44310;48.106;12.008;2022-12-24T04:00:11;3.40;;;1.00;;
58518;SDS011;44310;48.106;12.008;2022-12-24T04:02:39;2.55;;;0.90;;
58518;SDS011;44310;48.106;12.008;2022-12-24T04:05:07;3.47;;;1.00;;
58518;SDS011;44310;48.106;12.008;2022-12-24T04:07:38;1.63;;;0.83;;
58518;SDS011;44310;48.106;12.008;2022-12-24T04:10:05;7.25;;;1.92;;
58518;SDS011;44310;48.106;12.008;2022-12-24T04:12:33;4.20;;;1.30;;
58518;SDS011;44310;48.106;12.008;2022-12-24T04:15:00;3.80;;;1.10;;
58518;SDS011;44310;48.106;12.008;2022-12-24T04:17:27;4.63;;;1.30;;
58518;SDS011;44310;48.106;12.008;2022-12-24T04:19:54;6.30;;;1.25;;
58518;SDS011;44310;48.106;12.008;2022-12-24T04:22:21;6.63;;;1.40;;
58518;SDS011;44310;48.106;12.008;2022-12-24T04:24:48;3.30;;;1.20;;
58518;SDS011;44310;48.106;12.008;2022-12-24T04:27:15;3.83;;;1.10;;
58518;SDS011;44310;48.106;12.008;2022-12-24T04:29:43;6.17;;;1.43;;
58518;SDS011;44310;48.106;12.008;2022-12-24T04:32:10;4.50;;;1.20;;
58518;SDS011;44310;48.106;12.008;2022-12-24T04:34:37;5.18;;;1.77;;
58518;SDS011;44310;48.106;12.008;2022-12-24T04:37:04;3.53;;;1.20;;
58518;SDS011;44310;48.106;12.008;2022-12-24T04:39:31;2.55;;;1.27;;
58518;SDS011;44310;48.106;12.008;2022-12-24T04:41:58;7.85;;;1.48;;
58518;SDS011;44310;48.106;12.008;2022-12-24T04:44:26;5.40;;;1.40;;
58518;SDS011;44310;48.106;12.008;2022-12-24T04:46:53;8.00;;;1.60;;
58518;SDS011;44310;48.106;12.008;2022-12-24T04:49:20;2.75;;;1.10;;
58518;SDS011;44310;48.106;12.008;2022-12-24T04:51:47;3.10;;;1.08;;
58518;SDS011;44310;48.106;12.008;2022-12-24T04:54:14;3.80;;;1.10;;
58518;SDS011;44310;48.106;12.008;2022-12-24T04:56:41;5.22;;;1.10;;
58518;SDS011;44310;48.106;12.008;2022-12-24T04:59:08;3.45;;;1.10;;
58518;SDS011;44310;48.106;12.008;2022-12-24T05:01:35;2.47;;;0.90;;
58518;SDS011;44310;48.106;12.008;2022-12-24T05:04:03;3.95;;;1.08;;
58518;SDS011;44310;48.106;12.008;2022-12-24T05:06:32;1.70;;;0.98;;
58518;SDS011;44310;48.106;12.008;2022-12-24T05:08:59;2.30;;;0.88;;
58518;SDS011;44310;48.106;12.008;2022-12-24T05:11:26;1.80;;;0.85;;
58518;SDS011;44310;48.106;12.008;2022-12-24T05:13:54;3.17;;;1.05;;
58518;SDS011;44310;48.106;12.008;2022-12-24T05:16:22;2.17;;;0.80;;
58518;SDS011;44310;48.106;12.008;2022-12-24T05:18:50;4.57;;;1.00;;
58518;SDS011;44310;48.106;12.008;2022-12-24T05:21:21;2.20;;;0.98;;
58518;SDS011;44310;48.106;12.008;2022-12-24T05:23:50;2.30;;;0.90;;
58518;SDS011;44310;48.106;12.008;2022-12-24T05:26:45;1.92;;;0.95;;
58518;SDS011;44310;48.106;12.008;2022-12-24T05:29:17;2.87;;;1.03;;
58518;SDS011;44310;48.106;12.008;2022-12-24T05:31:44;1.85;;;0.80;;
58518;SDS011;44310;48.106;12.008;2022-12-24T05:34:12;2.22;;;1.00;;
58518;SDS011;44310;48.106;12.008;2022-12-24T05:36:41;1.30;;;0.90;;
58518;SDS011;44310;48.106;12.008;2022-12-24T05:39:11;1.67;;;0.70;;
58518;SDS011;44310;48.106;12.008;2022-12-24T05:41:43;3.05;;;0.90;;
58518;SDS011;44310;48.106;12.008;2022-12-24T05:44:11;3.38;;;0.80;;
58518;SDS011;44310;48.106;12.008;2022-12-24T05:46:39;4.07;;;0.90;;
58518;SDS011;44310;48.106;12.008;2022-12-24T05:49:07;2.10;;;0.80;;
58518;SDS011;44310;48.106;12.008;2022-12-24T05:51:34;2.85;;;0.85;;
58518;SDS011;44310;48.106;12.008;2022-12-24T05:54:01;2.45;;;0.80;;
58518;SDS011;44310;48.106;12.008;2022-12-24T05:56:29;2.60;;;0.90;;
58518;SDS011;44310;48.106;12.008;2022-12-24T05:58:56;3.03;;;0.85;;
58518;SDS011;44310;48.106;12.008;2022-12-24T06:01:24;2.50;;;0.73;;
58518;SDS011;44310;48.106;12.008;2022-12-24T06:03:52;1.20;;;0.60;;
58518;SDS011;44310;48.106;12.008;2022-12-24T06:06:20;1.73;;;0.70;;
58518;SDS011;44310;48.106;12.008;2022-12-24T06:08:50;3.20;;;0.80;;
58518;SDS011;44310;48.106;12.008;2022-12-24T06:11:20;10.63;;;1.98;;
58518;SDS011;44310;48.106;12.008;2022-12-24T06:13:48;3.33;;;1.00;;
58518;SDS011;44310;48.106;12.008;2022-12-24T06:16:16;1.95;;;1.00;;
58518;SDS011;44310;48.106;12.008;2022-12-24T06:18:45;3.77;;;1.13;;
58518;SDS011;44310;48.106;12.008;2022-12-24T06:21:12;1.90;;;0.73;;
58518;SDS011;44310;48.106;12.008;2022-12-24T06:23:40;2.72;;;1.00;;
58518;SDS011;44310;48.106;12.008;2022-12-24T06:26:10;3.90;;;1.10;;
58518;SDS011;44310;48.106;12.008;2022-12-24T06:28:43;4.63;;;1.10;;
58518;SDS011;44310;48.106;12.008;2022-12-24T06:31:11;5.15;;;1.02;;
58518;SDS011;44310;48.106;12.008;2022-12-24T06:33:40;3.42;;;1.10;;
58518;SDS011;44310;48.106;12.008;2022-12-24T06:36:09;4.33;;;1.50;;
58518;SDS011;44310;48.106;12.008;2022-12-24T06:38:44;3.08;;;1.08;;
58518;SDS011;44310;48.106;12.008;2022-12-24T06:41:12;3.05;;;1.20;;
58518;SDS011;44310;48.106;12.008;2022-12-24T06:43:46;2.75;;;0.90;;
58518;SDS011;44310;48.106;12.008;2022-12-24T06:46:16;4.73;;;1.10;;
58518;SDS011;44310;48.106;12.008;2022-12-24T06:48:44;5.90;;;1.10;;
58518;SDS011;44310;48.106;12.008;2022-12-24T06:51:12;3.85;;;1.00;;
58518;SDS011;44310;48.106;12.008;2022-12-24T06:53:39;6.57;;;1.80;;
58518;SDS011;44310;48.106;12.008;2022-12-24T06:56:08;3.72;;;1.13;;
58518;SDS011;44310;48.106;12.008;2022-12-24T06:58:36;4.45;;;1.23;;
58518;SDS011;44310;48.106;12.008;2022-12-24T07:01:04;5.47;;;1.40;;
58518;SDS011;44310;48.106;12.008;2022-12-24T07:03:33;5.25;;;1.08;;
58518;SDS011;44310;48.106;12.008;2022-12-24T07:06:00;4.30;;;1.13;;
58518;SDS011;44310;48.106;12.008;2022-12-24T07:08:28;3.78;;;1.05;;
58518;SDS011;44310;48.106;12.008;2022-12-24T07:10:59;2.65;;;1.20;;
58518;SDS011;44310;48.106;12.008;2022-12-24T07:13:26;4.18;;;1.30;;
58518;SDS011;44310;48.106;12.008;2022-12-24T07:15:57;4.10;;;1.10;;
58518;SDS011;44310;48.106;12.008;2022-12-24T07:18:25;6.97;;;1.30;;
58518;SDS011;44310;48.106;12.008;2022-12-24T07:20:53;2.85;;;1.13;;
58518;SDS011;44310;48.106;12.008;2022-12-24T07:23:20;5.97;;;1.10;;
58518;SDS011;44310;48.106;12.008;2022-12-24T07:25:48;3.63;;;1.10;;
58518;SDS011;44310;48.106;12.008;2022-12-24T07:28:15;2.97;;;0.90;;
58518;SDS011;44310;48.106;12.008;2022-12-24T07:30:43;1.67;;;0.90;;
58518;SDS011;44310;48.106;12.008;2022-12-24T07:33:10;3.47;;;1.00;;
58518;SDS011;44310;48.106;12.008;2022-12-24T07:35:38;2.10;;;1.00;;
58518;SDS011;44310;48.106;12.008;2022-12-24T07:38:05;3.43;;;1.00;;
58518;SDS011;44310;48.106;12.008;2022-12-24T07:40:32;6.70;;;1.40;;
58518;SDS011;44310;48.106;12.008;2022-12-24T07:43:00;5.05;;;1.13;;
58518;SDS011;44310;48.106;12.008;2022-12-24T07:45:27;5.25;;;1.17;;
58518;SDS011;44310;48.106;12.008;2022-12-24T07:47:54;4.22;;;1.70;;
58518;SDS011;44310;48.106;12.008;2022-12-24T07:50:21;5.50;;;1.58;;
58518;SDS011;44310;48.106;12.008;2022-12-24T07:52:49;4.05;;;1.13;;
58518;SDS011;44310;48.106;12.008;2022-12-24T07:55:16;6.45;;;1.10;;
58518;SDS011;44310;48.106;12.008;2022-12-24T07:57:43;5.63;;;1.05;;
58518;SDS011;44310;48.106;12.008;2022-12-24T08:00:10;5.15;;;1.10;;
58518;SDS011;44310;48.106;12.008;2022-12-24T08:02:38;2.63;;;1.00;;
58518;SDS011;44310;48.106;12.008;2022-12-24T08:05:06;4.82;;;1.23;;
58518;SDS011;44310;48.106;12.008;2022-12-24T08:07:33;3.10;;;0.85;;
58518;SDS011;44310;48.106;12.008;2022-12-24T08:10:01;3.35;;;1.00;;
58518;SDS011;44310;48.106;12.008;2022-12-24T08:12:28;1.92;;;1.00;;
58518;SDS011;44310;48.106;12.008;2022-12-24T08:14:55;5.63;;;1.38;;
58518;SDS011;44310;48.106;12.008;2022-12-24T08:17:22;8.98;;;2.10;;
58518;SDS011;44310;48.106;12.008;2022-12-24T08:19:57;8.10;;;1.70;;
58518;SDS011;44310;48.106;12.008;2022-12-24T08:22:24;5.80;;;1.55;;
58518;SDS011;44310;48.106;12.008;2022-12-24T08:24:51;10.43;;;2.30;;
58518;SDS011;44310;48.106;12.008;2022-12-24T08:27:18;3.58;;;1.20;;
58518;SDS011;44310;48.106;12.008;2022-12-24T08:29:45;19.80;;;3.45;;
58518;SDS011;44310;48.106;12.008;2022-12-24T08:32:12;9.65;;;2.20;;
58518;SDS011;44310;48.106;12.008;2022-12-24T08:34:40;24.60;;;4.55;;
58518;SDS011;44310;48.106;12.008;2022-12-24T08:37:07;10.30;;;2.00;;
58518;SDS011;44310;48.106;12.008;2022-12-24T08:39:34;9.03;;;1.97;;
58518;SDS011;44310;48.106;12.008;2022-12-24T08:42:01;8.10;;;1.80;;
58518;SDS011;44310;48.106;12.008;2022-12-24T08:44:28;9.07;;;2.05;;
58518;SDS011;44310;48.106;12.008;2022-12-24T08:46:55;7.93;;;1.58;;
58518;SDS011;44310;48.106;12.008;2022-12-24T08:49:22;6.60;;;1.48;;
58518;SDS011;44310;48.106;12.008;2022-12-24T08:51:50;5.68;;;1.30;;
58518;SDS011;44310;48.106;12.008;2022-12-24T08:54:17;5.95;;;1.52;;
58518;SDS011;44310;48.106;12.008;2022-12-24T08:56:44;3.38;;;1.20;;
58518;SDS011;44310;48.106;12.008;2022-12-24T08:59:11;6.00;;;1.40;;
58518;SDS011;44310;48.106;12.008;2022-12-24T09:01:38;4.63;;;1.33;;
58518;SDS011;44310;48.106;12.008;2022-12-24T09:04:06;7.50;;;1.50;;
58518;SDS011;44310;48.106;12.008;2022-12-24T09:06:33;9.20;;;1.70;;
58518;SDS011;44310;48.106;12.008;2022-12-24T09:09:00;7.18;;;1.58;;
58518;SDS011;44310;48.106;12.008;2022-12-24T09:11:28;7.57;;;1.60;;
58518;SDS011;44310;48.106;12.008;2022-12-24T09:13:55;6.57;;;1.70;;
58518;SDS011;44310;48.106;12.008;2022-12-24T09:16:22;5.60;;;1.20;;
58518;SDS011;44310;48.106;12.008;2022-12-24T09:18:50;3.20;;;1.13;;
58518;SDS011;44310;48.106;12.008;2022-12-24T09:21:17;3.15;;;1.30;;
58518;SDS011;44310;48.106;12.008;2022-12-24T09:23:45;4.07;;;1.13;;
58518;SDS011;44310;48.106;12.008;2022-12-24T09:26:17;2.45;;;0.90;;
58518;SDS011;44310;48.106;12.008;2022-12-24T09:28:49;5.03;;;1.20;;
58518;SDS011;44310;48.106;12.008;2022-12-24T09:31:17;4.45;;;1.10;;
58518;SDS011;44310;48.106;12.008;2022-12-24T09:33:45;3.10;;;0.95;;
58518;SDS011;44310;48.106;12.008;2022-12-24T09:36:13;2.03;;;1.10;;
58518;SDS011;44310;48.106;12.008;2022-12-24T09:38:41;3.47;;;1.00;;
58518;SDS011;44310;48.106;12.008;2022-12-24T09:43:53;2.78;;;1.08;;
58518;SDS011;44310;48.106;12.008;2022-12-24T09:46:33;2.80;;;1.00;;
58518;SDS011;44310;48.106;12.008;2022-12-24T09:49:07;2.65;;;1.10;;
58518;SDS011;44310;48.106;12.008;2022-12-24T09:51:41;1.98;;;1.00;;
58518;SDS011;44310;48.106;12.008;2022-12-24T09:54:23;5.55;;;1.30;;
58518;SDS011;44310;48.106;12.008;2022-12-24T09:56:54;3.53;;;1.30;;
58518;SDS011;44310;48.106;12.008;2022-12-24T09:59:31;3.10;;;1.30;;
58518;SDS011;44310;48.106;12.008;2022-12-24T10:02:10;4.10;;;1.40;;
58518;SDS011;44310;48.106;12.008;2022-12-24T10:04:40;6.13;;;1.27;;
58518;SDS011;44310;48.106;12.008;2022-12-24T10:12:43;9.33;;;2.10;;
58518;SDS011;44310;48.106;12.008;2022-12-24T10:15:39;8.38;;;1.77;;
58518;SDS011;44310;48.106;12.008;2022-12-24T10:20:46;6.22;;;1.92;;
58518;SDS011;44310;48.106;12.008;2022-12-24T10:23:36;9.70;;;2.05;;
58518;SDS011;44310;48.106;12.008;2022-12-24T10:29:10;5.80;;;1.70;;
58518;SDS011;44310;48.106;12.008;2022-12-24T10:31:49;5.82;;;1.40;;
58518;SDS011;44310;48.106;12.008;2022-12-24T10:34:23;5.00;;;1.65;;
58518;SDS011;44310;48.106;12.008;2022-12-24T10:36:53;4.00;;;1.40;;
58518;SDS011;44310;48.106;12.008;2022-12-24T10:39:22;8.27;;;1.50;;
58518;SDS011;44310;48.106;12.008;2022-12-24T10:41:51;5.95;;;1.50;;
58518;SDS011;44310;48.106;12.008;2022-12-24T10:44:24;6.85;;;1.45;;
58518;SDS011;44310;48.106;12.008;2022-12-24T10:46:54;6.10;;;1.35;;
58518;SDS011;44310;48.106;12.008;2022-12-24T10:49:43;4.47;;;1.35;;
58518;SDS011;44310;48.106;12.008;2022-12-24T10:52:13;3.40;;;1.30;;
58518;SDS011;44310;48.106;12.008;2022-12-24T10:55:03;3.57;;;1.00;;
58518;SDS011;44310;48.106;12.008;2022-12-24T10:57:33;3.55;;;1.10;;
58518;SDS011;44310;48.106;12.008;2022-12-24T11:00:00;2.03;;;1.10;;
58518;SDS011;44310;48.106;12.008;2022-12-24T11:02:33;2.47;;;1.10;;
58518;SDS011;44310;48.106;12.008;2022-12-24T11:05:03;4.97;;;1.30;;
58518;SDS011;44310;48.106;12.008;2022-12-24T11:07:33;3.40;;;1.00;;
58518;SDS011;44310;48.106;12.008;2022-12-24T11:10:04;4.33;;;1.20;;
58518;SDS011;44310;48.106;12.008;2022-12-24T11:12:34;4.60;;;1.15;;
58518;SDS011;44310;48.106;12.008;2022-12-24T11:17:33;2.13;;;1.10;;
58518;SDS011;44310;48.106;12.008;2022-12-24T11:20:01;4.10;;;1.50;;
58518;SDS011;44310;48.106;12.008;2022-12-24T11:22:30;3.65;;;1.20;;
58518;SDS011;44310;48.106;12.008;2022-12-24T11:25:03;6.00;;;1.70;;
58518;SDS011;44310;48.106;12.008;2022-12-24T11:27:43;4.78;;;1.38;;
58518;SDS011;44310;48.106;12.008;2022-12-24T11:32:46;7.18;;;1.67;;
58518;SDS011;44310;48.106;12.008;2022-12-24T11:37:43;5.30;;;1.80;;
58518;SDS011;44310;48.106;12.008;2022-12-24T11:40:20;5.85;;;1.48;;
58518;SDS011;44310;48.106;12.008;2022-12-24T11:42:49;6.15;;;1.40;;
58518;SDS011;44310;48.106;12.008;2022-12-24T11:47:49;34.45;;;6.65;;
58518;SDS011;44310;48.106;12.008;2022-12-24T11:50:22;19.42;;;3.53;;
58518;SDS011;44310;48.106;12.008;2022-12-24T11:53:10;11.63;;;2.38;;
58518;SDS011;44310;48.106;12.008;2022-12-24T11:55:50;4.90;;;1.30;;
58518;SDS011;44310;48.106;12.008;2022-12-24T12:01:02;9.80;;;2.28;;
58518;SDS011;44310;48.106;12.008;2022-12-24T12:03:47;13.40;;;2.95;;
58518;SDS011;44310;48.106;12.008;2022-12-24T12:08:58;13.68;;;2.50;;
58518;SDS011;44310;48.106;12.008;2022-12-24T12:11:31;10.38;;;2.15;;
58518;SDS011;44310;48.106;12.008;2022-12-24T12:14:01;17.40;;;3.60;;
58518;SDS011;44310;48.106;12.008;2022-12-24T12:16:47;7.15;;;1.65;;
58518;SDS011;44310;48.106;12.008;2022-12-24T12:19:27;4.25;;;1.50;;
58518;SDS011;44310;48.106;12.008;2022-12-24T12:22:01;5.78;;;1.77;;
58518;SDS011;44310;48.106;12.008;2022-12-24T12:24:33;9.77;;;1.40;;
58518;SDS011;44310;48.106;12.008;2022-12-24T12:27:27;3.80;;;1.00;;
58518;SDS011;44310;48.106;12.008;2022-12-24T12:30:04;18.20;;;3.63;;
58518;SDS011;44310;48.106;12.008;2022-12-24T12:32:51;14.18;;;2.85;;
58518;SDS011;44310;48.106;12.008;2022-12-24T12:35:30;6.05;;;1.50;;
58518;SDS011;44310;48.106;12.008;2022-12-24T12:38:03;9.70;;;2.30;;
58518;SDS011;44310;48.106;12.008;2022-12-24T12:43:48;3.03;;;0.90;;
58518;SDS011;44310;48.106;12.008;2022-12-24T12:57:03;12.93;;;2.50;;
58518;SDS011;44310;48.106;12.008;2022-12-24T12:59:36;40.30;;;7.80;;
58518;SDS011;44310;48.106;12.008;2022-12-24T13:11:41;16.75;;;4.03;;
58518;SDS011;44310;48.106;12.008;2022-12-24T13:14:52;19.17;;;3.65;;
58518;SDS011;44310;48.106;12.008;2022-12-24T13:20:19;27.77;;;5.90;;
58518;SDS011;44310;48.106;12.008;2022-12-24T13:23:20;33.28;;;6.70;;
58518;SDS011;44310;48.106;12.008;2022-12-24T13:25:50;14.52;;;3.08;;
58518;SDS011;44310;48.106;12.008;2022-12-24T13:33:47;33.00;;;6.78;;
58518;SDS011;44310;48.106;12.008;2022-12-24T13:36:17;28.23;;;5.50;;
58518;SDS011;44310;48.106;12.008;2022-12-24T13:47:16;8.00;;;2.50;;
58518;SDS011;44310;48.106;12.008;2022-12-24T13:49:58;16.20;;;2.85;;
58518;SDS011;44310;48.106;12.008;2022-12-24T13:58:49;5.93;;;1.55;;
58518;SDS011;44310;48.106;12.008;2022-12-24T14:02:04;6.28;;;1.30;;
58518;SDS011;44310;48.106;12.008;2022-12-24T14:04:48;3.45;;;0.93;;
58518;SDS011;44310;48.106;12.008;2022-12-24T14:07:34;1.30;;;0.63;;
58518;SDS011;44310;48.106;12.008;2022-12-24T14:10:17;11.93;;;2.50;;
58518;SDS011;44310;48.106;12.008;2022-12-24T14:12:58;7.55;;;2.00;;
58518;SDS011;44310;48.106;12.008;2022-12-24T14:18:21;6.40;;;1.40;;
58518;SDS011;44310;48.106;12.008;2022-12-24T14:20:54;8.75;;;1.88;;
58518;SDS011;44310;48.106;12.008;2022-12-24T14:23:34;6.35;;;1.50;;
58518;SDS011;44310;48.106;12.008;2022-12-24T14:26:09;4.68;;;0.90;;
58518;SDS011;44310;48.106;12.008;2022-12-24T14:28:42;2.70;;;0.80;;
58518;SDS011;44310;48.106;12.008;2022-12-24T14:31:25;2.42;;;0.80;;
58518;SDS011;44310;48.106;12.008;2022-12-24T14:34:11;1.60;;;0.70;;
58518;SDS011;44310;48.106;12.008;2022-12-24T14:36:40;1.58;;;0.50;;
58518;SDS011;44310;48.106;12.008;2022-12-24T14:39:17;2.17;;;0.60;;
58518;SDS011;44310;48.106;12.008;2022-12-24T14:56:33;1.27;;;0.57;;
58518;SDS011;44310;48.106;12.008;2022-12-24T14:59:15;0.80;;;0.50;;
58518;SDS011;44310;48.106;12.008;2022-12-24T15:01:54;0.55;;;0.40;;
58518;SDS011;44310;48.106;12.008;2022-12-24T15:04:23;0.40;;;0.40;;
58518;SDS011;44310;48.106;12.008;2022-12-24T15:06:55;0.30;;;0.30;;
58518;SDS011;44310;48.106;12.008;2022-12-24T15:09:31;0.80;;;0.47;;
58518;SDS011;44310;48.106;12.008;2022-12-24T15:12:00;0.60;;;0.50;;
58518;SDS011;44310;48.106;12.008;2022-12-24T15:14:31;0.50;;;0.40;;
58518;SDS011;44310;48.106;12.008;2022-12-24T15:17:08;1.25;;;0.77;;
58518;SDS011;44310;48.106;12.008;2022-12-24T15:19:44;1.10;;;0.52;;
58518;SDS011;44310;48.106;12.008;2022-12-24T15:22:26;4.90;;;0.90;;
58518;SDS011;44310;48.106;12.008;2022-12-24T15:24:57;4.10;;;0.80;;
58518;SDS011;44310;48.106;12.008;2022-12-24T15:27:33;2.40;;;0.93;;
58518;SDS011;44310;48.106;12.008;2022-12-24T15:32:55;16.23;;;3.28;;
58518;SDS011;44310;48.106;12.008;2022-12-24T15:35:31;14.45;;;3.50;;
58518;SDS011;44310;48.106;12.008;2022-12-24T15:38:24;37.83;;;6.85;;
58518;SDS011;44310;48.106;12.008;2022-12-24T15:43:49;26.05;;;5.05;;
58518;SDS011;44310;48.106;12.008;2022-12-24T15:46:22;22.45;;;4.47;;
58518;SDS011;44310;48.106;12.008;2022-12-24T15:48:51;29.48;;;5.65;;
58518;SDS011;44310;48.106;12.008;2022-12-24T15:51:28;27.47;;;5.83;;
58518;SDS011;44310;48.106;12.008;2022-12-24T15:54:02;28.90;;;5.22;;
58518;SDS011;44310;48.106;12.008;2022-12-24T15:56:38;26.58;;;4.47;;
58518;SDS011;44310;48.106;12.008;2022-12-24T15:59:30;20.50;;;4.45;;
58518;SDS011;44310;48.106;12.008;2022-12-24T16:02:17;21.55;;;4.45;;
58518;SDS011;44310;48.106;12.008;2022-12-24T16:04:48;19.80;;;3.67;;
58518;SDS011;44310;48.106;12.008;2022-12-24T16:07:25;16.25;;;3.40;;
58518;SDS011;44310;48.106;12.008;2022-12-24T16:10:23;22.00;;;4.50;;
58518;SDS011;44310;48.106;12.008;2022-12-24T16:12:51;16.60;;;3.87;;
58518;SDS011;44310;48.106;12.008;2022-12-24T16:15:18;12.40;;;3.03;;
58518;SDS011;44310;48.106;12.008;2022-12-24T16:17:47;17.80;;;3.80;;
58518;SDS011;44310;48.106;12.008;2022-12-24T16:20:15;19.90;;;3.88;;
58518;SDS011;44310;48.106;12.008;2022-12-24T16:22:46;22.20;;;4.00;;
58518;SDS011;44310;48.106;12.008;2022-12-24T16:25:22;18.05;;;3.47;;
58518;SDS011;44310;48.106;12.008;2022-12-24T16:27:51;13.00;;;2.90;;
58518;SDS011;44310;48.106;12.008;2022-12-24T16:30:19;20.25;;;3.88;;
58518;SDS011;44310;48.106;12.008;2022-12-24T16:32:47;15.07;;;3.92;;
58518;SDS011;44310;48.106;12.008;2022-12-24T16:35:59;18.50;;;3.77;;
58518;SDS011;44310;48.106;12.008;2022-12-24T16:38:06;17.35;;;3.95;;
58518;SDS011;44310;48.106;12.008;2022-12-24T16:40:33;16.88;;;3.53;;
58518;SDS011;44310;48.106;12.008;2022-12-24T16:43:00;17.05;;;3.65;;
58518;SDS011;44310;48.106;12.008;2022-12-24T16:45:46;14.98;;;3.30;;
58518;SDS011;44310;48.106;12.008;2022-12-24T16:48:16;19.58;;;3.65;;